This is the latest recevied weather packets stored in our database for station/object N3WMC. If no packets are shown the sender has not sent any weather packets the latest 10 day(s).
| Time | Temp. | Humidity | Pressure | Rain* | Wind** | Luminosity | Snow |
|---|---|---|---|---|---|---|---|
| 1787873473 | 25° C | 79% | 1014.8 hPa | 0 mm | - | 12 W/m² | - |
| 1787873168 | 24.44° C | 81% | 1014.6 hPa | 0 mm | - | 16 W/m² | - |
| 1787872867 | 25° C | 77% | 1014.7 hPa | 0 mm | - | 18 W/m² | - |
| 1787872563 | 25° C | 77% | 1014.7 hPa | 0 mm | - | 20 W/m² | - |
| 1787872258 | 25.56° C | 76% | 1014.5 hPa | 0 mm | - | 22 W/m² | - |
| 1787871952 | 26.11° C | 73% | 1014.5 hPa | 0 mm | - | 23 W/m² | - |
| 1787871648 | 27.22° C | 71% | 1014.5 hPa | 0 mm | - | 30 W/m² | - |
| 1787871343 | 27.78° C | 69% | 1014.4 hPa | 0 mm | - | 39 W/m² | - |
| 1787871038 | 28.33° C | 68% | 1014.6 hPa | 0 mm | - | 48 W/m² | - |
| 1787870737 | 28.33° C | 68% | 1014.5 hPa | 0 mm | - | 54 W/m² | - |
| 1787870432 | 28.89° C | 66% | 1014.2 hPa | 0 mm | - | 58 W/m² | - |
| 1787870122 | 28.89° C | 66% | 1014.2 hPa | 0 mm | - | 66 W/m² | - |
| 1787869821 | 28.33° C | 66% | 1014.1 hPa | 0 mm | - | 73 W/m² | - |
| 1787869521 | 28.33° C | 66% | 1014.2 hPa | 0 mm | - | 79 W/m² | - |
| 1787869215 | 28.33° C | 65% | 1014.2 hPa | 0 mm | - | 89 W/m² | - |
| 1787868909 | 28.33° C | 66% | 1014.2 hPa | 0 mm | - | 96 W/m² | - |
| 1787868609 | 28.33° C | 65% | 1014.4 hPa | 0 mm | - | 109 W/m² | - |
| 1787868307 | 28.89° C | 65% | 1014.4 hPa | 0 mm | - | 123 W/m² | - |
| 1787868002 | 28.33° C | 66% | 1014.2 hPa | 0 mm | - | 135 W/m² | - |
| 1787867698 | 28.33° C | 66% | 1014.3 hPa | 0 mm | - | 85 W/m² | - |
| 1787867397 | 27.78° C | 67% | 1014.5 hPa | 0 mm | - | 155 W/m² | - |
| 1787867093 | 27.78° C | 68% | 1014.3 hPa | 0 mm | - | 165 W/m² | - |
| 1787866788 | 28.33° C | 67% | 1014.5 hPa | 0 mm | - | 85 W/m² | - |
| 1787866488 | 27.78° C | 65% | 1014.4 hPa | 0 mm | - | 183 W/m² | - |
| 1787866186 | 27.78° C | 67% | 1014.4 hPa | 0 mm | - | 127 W/m² | - |
* Rain latest hour (hover to see other rain measurements)
** Current wind speed in m/s (hover to see current wind gust speed)